sensor_id;sensor_type;location;lat;lon;timestamp;P1;durP1;ratioP1;P2;durP2;ratioP2
25717;SDS011;13574;52.040;5.692;2022-08-25T00:00:40;5.95;;;5.40;;
25717;SDS011;13574;52.040;5.692;2022-08-25T00:03:07;6.00;;;5.38;;
25717;SDS011;13574;52.040;5.692;2022-08-25T00:05:33;6.35;;;5.72;;
25717;SDS011;13574;52.040;5.692;2022-08-25T00:07:59;6.70;;;5.72;;
25717;SDS011;13574;52.040;5.692;2022-08-25T00:10:25;7.25;;;6.28;;
25717;SDS011;13574;52.040;5.692;2022-08-25T00:12:51;7.43;;;6.20;;
25717;SDS011;13574;52.040;5.692;2022-08-25T00:15:17;7.50;;;5.63;;
25717;SDS011;13574;52.040;5.692;2022-08-25T00:17:42;5.85;;;5.20;;
25717;SDS011;13574;52.040;5.692;2022-08-25T00:20:08;9.75;;;6.13;;
25717;SDS011;13574;52.040;5.692;2022-08-25T00:22:34;6.10;;;5.50;;
25717;SDS011;13574;52.040;5.692;2022-08-25T00:25:00;6.22;;;5.65;;
25717;SDS011;13574;52.040;5.692;2022-08-25T00:27:26;8.13;;;6.07;;
25717;SDS011;13574;52.040;5.692;2022-08-25T00:29:52;6.75;;;6.15;;
25717;SDS011;13574;52.040;5.692;2022-08-25T00:32:18;8.60;;;6.38;;
25717;SDS011;13574;52.040;5.692;2022-08-25T00:34:44;7.82;;;6.40;;
25717;SDS011;13574;52.040;5.692;2022-08-25T00:37:10;8.90;;;6.40;;
25717;SDS011;13574;52.040;5.692;2022-08-25T00:39:36;7.45;;;6.50;;
25717;SDS011;13574;52.040;5.692;2022-08-25T00:42:03;8.40;;;6.68;;
25717;SDS011;13574;52.040;5.692;2022-08-25T00:44:30;9.52;;;6.22;;
25717;SDS011;13574;52.040;5.692;2022-08-25T00:46:58;10.23;;;7.00;;
25717;SDS011;13574;52.040;5.692;2022-08-25T00:52:22;8.13;;;6.72;;
25717;SDS011;13574;52.040;5.692;2022-08-25T00:54:58;7.35;;;6.60;;
25717;SDS011;13574;52.040;5.692;2022-08-25T00:57:28;8.60;;;7.07;;
25717;SDS011;13574;52.040;5.692;2022-08-25T01:00:07;8.48;;;6.95;;
25717;SDS011;13574;52.040;5.692;2022-08-25T01:02:39;7.85;;;6.70;;
25717;SDS011;13574;52.040;5.692;2022-08-25T01:05:05;10.43;;;6.47;;
25717;SDS011;13574;52.040;5.692;2022-08-25T01:07:30;7.78;;;6.93;;
25717;SDS011;13574;52.040;5.692;2022-08-25T01:09:57;7.60;;;6.72;;
25717;SDS011;13574;52.040;5.692;2022-08-25T01:12:24;7.72;;;6.50;;
25717;SDS011;13574;52.040;5.692;2022-08-25T01:14:50;7.28;;;6.57;;
25717;SDS011;13574;52.040;5.692;2022-08-25T01:17:17;7.25;;;6.32;;
25717;SDS011;13574;52.040;5.692;2022-08-25T01:19:44;6.50;;;5.75;;
25717;SDS011;13574;52.040;5.692;2022-08-25T01:22:10;10.68;;;6.65;;
25717;SDS011;13574;52.040;5.692;2022-08-25T01:24:41;7.20;;;6.15;;
25717;SDS011;13574;52.040;5.692;2022-08-25T01:27:28;7.82;;;6.13;;
25717;SDS011;13574;52.040;5.692;2022-08-25T01:29:54;7.38;;;6.43;;
25717;SDS011;13574;52.040;5.692;2022-08-25T01:32:21;7.30;;;6.13;;
25717;SDS011;13574;52.040;5.692;2022-08-25T01:34:47;9.45;;;6.30;;
25717;SDS011;13574;52.040;5.692;2022-08-25T01:37:14;8.50;;;6.18;;
25717;SDS011;13574;52.040;5.692;2022-08-25T01:39:43;6.88;;;5.93;;
25717;SDS011;13574;52.040;5.692;2022-08-25T01:44:43;7.78;;;6.32;;
25717;SDS011;13574;52.040;5.692;2022-08-25T01:47:10;7.38;;;6.15;;
25717;SDS011;13574;52.040;5.692;2022-08-25T01:49:36;6.78;;;6.05;;
25717;SDS011;13574;52.040;5.692;2022-08-25T01:54:37;7.18;;;5.45;;
25717;SDS011;13574;52.040;5.692;2022-08-25T01:57:03;8.82;;;6.25;;
25717;SDS011;13574;52.040;5.692;2022-08-25T01:59:28;7.85;;;6.13;;
25717;SDS011;13574;52.040;5.692;2022-08-25T02:01:54;6.38;;;5.78;;
25717;SDS011;13574;52.040;5.692;2022-08-25T02:04:20;6.82;;;6.13;;
25717;SDS011;13574;52.040;5.692;2022-08-25T02:06:46;5.95;;;5.38;;
25717;SDS011;13574;52.040;5.692;2022-08-25T02:09:13;7.03;;;5.60;;
25717;SDS011;13574;52.040;5.692;2022-08-25T02:11:40;6.47;;;5.80;;
25717;SDS011;13574;52.040;5.692;2022-08-25T02:14:08;8.15;;;5.72;;
25717;SDS011;13574;52.040;5.692;2022-08-25T02:16:36;7.72;;;5.70;;
25717;SDS011;13574;52.040;5.692;2022-08-25T02:19:05;6.20;;;5.45;;
25717;SDS011;13574;52.040;5.692;2022-08-25T02:21:32;7.20;;;5.70;;
25717;SDS011;13574;52.040;5.692;2022-08-25T02:23:59;9.38;;;5.70;;
25717;SDS011;13574;52.040;5.692;2022-08-25T02:26:25;6.20;;;5.60;;
25717;SDS011;13574;52.040;5.692;2022-08-25T02:28:51;6.40;;;5.70;;
25717;SDS011;13574;52.040;5.692;2022-08-25T02:31:19;9.48;;;5.40;;
25717;SDS011;13574;52.040;5.692;2022-08-25T02:33:46;8.32;;;5.60;;
25717;SDS011;13574;52.040;5.692;2022-08-25T02:36:12;9.90;;;6.10;;
25717;SDS011;13574;52.040;5.692;2022-08-25T02:38:38;5.72;;;5.10;;
25717;SDS011;13574;52.040;5.692;2022-08-25T02:41:09;5.85;;;5.25;;
25717;SDS011;13574;52.040;5.692;2022-08-25T02:43:40;6.00;;;5.43;;
25717;SDS011;13574;52.040;5.692;2022-08-25T02:46:08;8.18;;;5.53;;
25717;SDS011;13574;52.040;5.692;2022-08-25T02:48:34;8.45;;;5.32;;
25717;SDS011;13574;52.040;5.692;2022-08-25T02:51:01;6.85;;;5.22;;
25717;SDS011;13574;52.040;5.692;2022-08-25T02:53:28;6.05;;;4.85;;
25717;SDS011;13574;52.040;5.692;2022-08-25T02:55:54;8.85;;;5.07;;
25717;SDS011;13574;52.040;5.692;2022-08-25T02:58:20;6.72;;;5.07;;
25717;SDS011;13574;52.040;5.692;2022-08-25T03:00:46;7.47;;;4.93;;
25717;SDS011;13574;52.040;5.692;2022-08-25T03:03:13;6.38;;;4.78;;
25717;SDS011;13574;52.040;5.692;2022-08-25T03:05:39;6.50;;;4.78;;
25717;SDS011;13574;52.040;5.692;2022-08-25T03:08:05;7.72;;;4.65;;
25717;SDS011;13574;52.040;5.692;2022-08-25T03:10:32;7.18;;;4.88;;
25717;SDS011;13574;52.040;5.692;2022-08-25T03:12:59;11.40;;;4.85;;
25717;SDS011;13574;52.040;5.692;2022-08-25T03:15:25;7.95;;;5.03;;
25717;SDS011;13574;52.040;5.692;2022-08-25T03:17:52;6.80;;;4.68;;
25717;SDS011;13574;52.040;5.692;2022-08-25T03:20:19;6.55;;;4.43;;
25717;SDS011;13574;52.040;5.692;2022-08-25T03:22:47;5.25;;;4.75;;
25717;SDS011;13574;52.040;5.692;2022-08-25T03:25:13;5.50;;;4.40;;
25717;SDS011;13574;52.040;5.692;2022-08-25T03:27:58;6.15;;;4.50;;
25717;SDS011;13574;52.040;5.692;2022-08-25T03:30:24;5.55;;;4.35;;
25717;SDS011;13574;52.040;5.692;2022-08-25T03:32:50;6.78;;;4.68;;
25717;SDS011;13574;52.040;5.692;2022-08-25T03:35:16;8.63;;;4.35;;
25717;SDS011;13574;52.040;5.692;2022-08-25T03:37:42;6.43;;;4.13;;
25717;SDS011;13574;52.040;5.692;2022-08-25T03:40:09;6.57;;;4.35;;
25717;SDS011;13574;52.040;5.692;2022-08-25T03:42:41;7.00;;;4.55;;
25717;SDS011;13574;52.040;5.692;2022-08-25T03:45:11;6.10;;;4.20;;
25717;SDS011;13574;52.040;5.692;2022-08-25T03:47:38;5.10;;;4.50;;
25717;SDS011;13574;52.040;5.692;2022-08-25T03:50:07;6.07;;;4.40;;
25717;SDS011;13574;52.040;5.692;2022-08-25T03:52:34;7.40;;;4.32;;
25717;SDS011;13574;52.040;5.692;2022-08-25T03:55:00;6.47;;;4.47;;
25717;SDS011;13574;52.040;5.692;2022-08-25T03:57:28;4.68;;;4.20;;
25717;SDS011;13574;52.040;5.692;2022-08-25T03:59:54;9.40;;;4.60;;
25717;SDS011;13574;52.040;5.692;2022-08-25T04:02:20;6.60;;;3.90;;
25717;SDS011;13574;52.040;5.692;2022-08-25T04:04:45;6.35;;;4.35;;
25717;SDS011;13574;52.040;5.692;2022-08-25T04:07:11;9.02;;;4.70;;
25717;SDS011;13574;52.040;5.692;2022-08-25T04:09:36;7.45;;;4.47;;
25717;SDS011;13574;52.040;5.692;2022-08-25T04:12:02;6.78;;;4.60;;
25717;SDS011;13574;52.040;5.692;2022-08-25T04:14:29;10.95;;;4.57;;
25717;SDS011;13574;52.040;5.692;2022-08-25T04:16:55;8.23;;;5.10;;
25717;SDS011;13574;52.040;5.692;2022-08-25T04:19:21;5.72;;;4.35;;
25717;SDS011;13574;52.040;5.692;2022-08-25T04:21:46;6.22;;;4.43;;
25717;SDS011;13574;52.040;5.692;2022-08-25T04:24:12;7.20;;;4.78;;
25717;SDS011;13574;52.040;5.692;2022-08-25T04:26:39;6.10;;;4.30;;
25717;SDS011;13574;52.040;5.692;2022-08-25T04:29:08;5.85;;;4.38;;
25717;SDS011;13574;52.040;5.692;2022-08-25T04:31:35;6.22;;;4.07;;
25717;SDS011;13574;52.040;5.692;2022-08-25T04:34:04;7.22;;;4.55;;
25717;SDS011;13574;52.040;5.692;2022-08-25T04:36:31;6.78;;;4.75;;
25717;SDS011;13574;52.040;5.692;2022-08-25T04:38:57;9.15;;;4.53;;
25717;SDS011;13574;52.040;5.692;2022-08-25T04:41:23;10.60;;;4.47;;
25717;SDS011;13574;52.040;5.692;2022-08-25T04:43:50;10.68;;;4.50;;
25717;SDS011;13574;52.040;5.692;2022-08-25T04:46:18;8.57;;;4.20;;
25717;SDS011;13574;52.040;5.692;2022-08-25T04:48:46;33.95;;;6.72;;
25717;SDS011;13574;52.040;5.692;2022-08-25T04:51:15;25.50;;;5.93;;
25717;SDS011;13574;52.040;5.692;2022-08-25T04:53:47;12.35;;;4.78;;
25717;SDS011;13574;52.040;5.692;2022-08-25T04:56:14;7.30;;;4.47;;
25717;SDS011;13574;52.040;5.692;2022-08-25T04:58:42;8.32;;;4.38;;
25717;SDS011;13574;52.040;5.692;2022-08-25T05:01:09;8.10;;;4.45;;
25717;SDS011;13574;52.040;5.692;2022-08-25T05:03:37;11.13;;;4.53;;
25717;SDS011;13574;52.040;5.692;2022-08-25T05:06:03;7.57;;;4.53;;
25717;SDS011;13574;52.040;5.692;2022-08-25T05:08:29;6.63;;;4.47;;
25717;SDS011;13574;52.040;5.692;2022-08-25T05:10:56;7.97;;;4.47;;
25717;SDS011;13574;52.040;5.692;2022-08-25T05:13:22;10.63;;;4.93;;
25717;SDS011;13574;52.040;5.692;2022-08-25T05:15:56;7.80;;;4.63;;
25717;SDS011;13574;52.040;5.692;2022-08-25T05:18:24;7.05;;;4.60;;
25717;SDS011;13574;52.040;5.692;2022-08-25T05:20:51;6.97;;;4.30;;
25717;SDS011;13574;52.040;5.692;2022-08-25T05:23:20;9.20;;;4.53;;
25717;SDS011;13574;52.040;5.692;2022-08-25T05:25:48;5.95;;;4.45;;
25717;SDS011;13574;52.040;5.692;2022-08-25T05:28:15;7.85;;;4.60;;
25717;SDS011;13574;52.040;5.692;2022-08-25T05:30:42;7.28;;;4.70;;
25717;SDS011;13574;52.040;5.692;2022-08-25T05:33:08;6.82;;;4.72;;
25717;SDS011;13574;52.040;5.692;2022-08-25T05:35:35;6.70;;;4.32;;
25717;SDS011;13574;52.040;5.692;2022-08-25T05:38:02;9.20;;;4.72;;
25717;SDS011;13574;52.040;5.692;2022-08-25T05:40:28;6.05;;;4.50;;
25717;SDS011;13574;52.040;5.692;2022-08-25T05:42:54;8.40;;;4.65;;
25717;SDS011;13574;52.040;5.692;2022-08-25T05:45:20;8.77;;;4.70;;
25717;SDS011;13574;52.040;5.692;2022-08-25T05:47:46;5.88;;;4.38;;
25717;SDS011;13574;52.040;5.692;2022-08-25T05:50:12;6.40;;;4.70;;
25717;SDS011;13574;52.040;5.692;2022-08-25T05:52:39;5.35;;;4.30;;
25717;SDS011;13574;52.040;5.692;2022-08-25T05:55:05;7.72;;;4.68;;
25717;SDS011;13574;52.040;5.692;2022-08-25T05:57:31;5.55;;;4.30;;
25717;SDS011;13574;52.040;5.692;2022-08-25T05:59:58;9.45;;;4.63;;
25717;SDS011;13574;52.040;5.692;2022-08-25T06:02:24;7.25;;;4.70;;
25717;SDS011;13574;52.040;5.692;2022-08-25T06:05:05;7.50;;;4.78;;
25717;SDS011;13574;52.040;5.692;2022-08-25T06:07:35;6.50;;;4.50;;
25717;SDS011;13574;52.040;5.692;2022-08-25T06:10:02;5.53;;;4.45;;
25717;SDS011;13574;52.040;5.692;2022-08-25T06:12:29;5.93;;;4.57;;
25717;SDS011;13574;52.040;5.692;2022-08-25T06:14:56;8.35;;;4.72;;
25717;SDS011;13574;52.040;5.692;2022-08-25T06:17:22;7.30;;;4.95;;
25717;SDS011;13574;52.040;5.692;2022-08-25T06:19:48;12.48;;;4.90;;
25717;SDS011;13574;52.040;5.692;2022-08-25T06:22:13;8.93;;;4.75;;
25717;SDS011;13574;52.040;5.692;2022-08-25T06:24:39;8.10;;;4.72;;
25717;SDS011;13574;52.040;5.692;2022-08-25T06:27:05;7.43;;;4.60;;
25717;SDS011;13574;52.040;5.692;2022-08-25T06:29:30;5.88;;;4.25;;
25717;SDS011;13574;52.040;5.692;2022-08-25T06:31:56;7.82;;;4.47;;
25717;SDS011;13574;52.040;5.692;2022-08-25T06:34:22;8.68;;;4.68;;
25717;SDS011;13574;52.040;5.692;2022-08-25T06:36:48;6.85;;;4.07;;
25717;SDS011;13574;52.040;5.692;2022-08-25T06:39:14;9.68;;;4.15;;
25717;SDS011;13574;52.040;5.692;2022-08-25T06:41:40;6.28;;;4.20;;
25717;SDS011;13574;52.040;5.692;2022-08-25T06:44:06;8.98;;;4.30;;
25717;SDS011;13574;52.040;5.692;2022-08-25T06:46:32;5.65;;;4.47;;
25717;SDS011;13574;52.040;5.692;2022-08-25T06:48:58;6.18;;;4.57;;
25717;SDS011;13574;52.040;5.692;2022-08-25T06:51:24;9.57;;;4.28;;
25717;SDS011;13574;52.040;5.692;2022-08-25T06:53:51;10.02;;;4.40;;
25717;SDS011;13574;52.040;5.692;2022-08-25T06:56:18;6.97;;;3.95;;
25717;SDS011;13574;52.040;5.692;2022-08-25T06:58:45;13.95;;;4.85;;
25717;SDS011;13574;52.040;5.692;2022-08-25T07:01:13;8.90;;;4.15;;
25717;SDS011;13574;52.040;5.692;2022-08-25T07:03:41;8.70;;;4.30;;
25717;SDS011;13574;52.040;5.692;2022-08-25T07:06:07;8.68;;;4.32;;
25717;SDS011;13574;52.040;5.692;2022-08-25T07:08:34;10.13;;;4.47;;
25717;SDS011;13574;52.040;5.692;2022-08-25T07:11:04;9.70;;;4.18;;
25717;SDS011;13574;52.040;5.692;2022-08-25T07:15:57;6.03;;;4.30;;
25717;SDS011;13574;52.040;5.692;2022-08-25T07:18:22;6.78;;;4.40;;
25717;SDS011;13574;52.040;5.692;2022-08-25T07:20:48;11.70;;;4.55;;
25717;SDS011;13574;52.040;5.692;2022-08-25T07:23:16;8.95;;;4.32;;
25717;SDS011;13574;52.040;5.692;2022-08-25T07:25:42;7.78;;;4.32;;
25717;SDS011;13574;52.040;5.692;2022-08-25T07:28:07;9.32;;;4.50;;
25717;SDS011;13574;52.040;5.692;2022-08-25T07:30:33;9.73;;;4.93;;
25717;SDS011;13574;52.040;5.692;2022-08-25T07:32:59;6.78;;;4.50;;
25717;SDS011;13574;52.040;5.692;2022-08-25T07:35:24;6.57;;;4.35;;
25717;SDS011;13574;52.040;5.692;2022-08-25T07:37:53;8.25;;;4.60;;
25717;SDS011;13574;52.040;5.692;2022-08-25T07:42:49;10.32;;;4.30;;
25717;SDS011;13574;52.040;5.692;2022-08-25T07:45:16;6.13;;;3.97;;
25717;SDS011;13574;52.040;5.692;2022-08-25T07:47:43;33.42;;;6.15;;
25717;SDS011;13574;52.040;5.692;2022-08-25T07:50:09;9.65;;;4.40;;
25717;SDS011;13574;52.040;5.692;2022-08-25T07:52:36;10.48;;;4.20;;
25717;SDS011;13574;52.040;5.692;2022-08-25T07:55:03;10.30;;;4.30;;
25717;SDS011;13574;52.040;5.692;2022-08-25T07:57:29;12.38;;;4.60;;
25717;SDS011;13574;52.040;5.692;2022-08-25T07:59:55;11.73;;;4.70;;
25717;SDS011;13574;52.040;5.692;2022-08-25T08:02:23;7.55;;;4.28;;
25717;SDS011;13574;52.040;5.692;2022-08-25T08:04:49;8.30;;;4.35;;
25717;SDS011;13574;52.040;5.692;2022-08-25T08:07:17;9.98;;;4.22;;
25717;SDS011;13574;52.040;5.692;2022-08-25T08:09:45;7.60;;;4.50;;
25717;SDS011;13574;52.040;5.692;2022-08-25T08:12:12;9.77;;;4.40;;
25717;SDS011;13574;52.040;5.692;2022-08-25T08:14:37;8.18;;;4.50;;
25717;SDS011;13574;52.040;5.692;2022-08-25T08:17:04;9.43;;;4.75;;
25717;SDS011;13574;52.040;5.692;2022-08-25T08:19:32;6.85;;;4.30;;
25717;SDS011;13574;52.040;5.692;2022-08-25T08:21:58;9.77;;;4.57;;
25717;SDS011;13574;52.040;5.692;2022-08-25T08:24:29;8.95;;;4.30;;
25717;SDS011;13574;52.040;5.692;2022-08-25T08:26:56;9.10;;;4.55;;
25717;SDS011;13574;52.040;5.692;2022-08-25T08:29:42;10.73;;;4.57;;
25717;SDS011;13574;52.040;5.692;2022-08-25T08:32:17;7.47;;;4.05;;
25717;SDS011;13574;52.040;5.692;2022-08-25T08:34:43;11.02;;;4.40;;
25717;SDS011;13574;52.040;5.692;2022-08-25T08:37:10;6.90;;;4.07;;
25717;SDS011;13574;52.040;5.692;2022-08-25T08:39:36;7.28;;;3.97;;
25717;SDS011;13574;52.040;5.692;2022-08-25T08:42:05;8.32;;;4.40;;
25717;SDS011;13574;52.040;5.692;2022-08-25T08:47:36;7.60;;;4.13;;
25717;SDS011;13574;52.040;5.692;2022-08-25T08:58:05;14.00;;;4.60;;
25717;SDS011;13574;52.040;5.692;2022-08-25T09:00:41;5.30;;;3.65;;
25717;SDS011;13574;52.040;5.692;2022-08-25T09:03:11;6.45;;;4.30;;
25717;SDS011;13574;52.040;5.692;2022-08-25T09:05:59;8.00;;;4.03;;
25717;SDS011;13574;52.040;5.692;2022-08-25T09:08:29;9.45;;;4.13;;
25717;SDS011;13574;52.040;5.692;2022-08-25T09:13:35;11.90;;;4.85;;
25717;SDS011;13574;52.040;5.692;2022-08-25T09:16:19;8.30;;;4.10;;
25717;SDS011;13574;52.040;5.692;2022-08-25T09:32:49;12.18;;;4.38;;
25717;SDS011;13574;52.040;5.692;2022-08-25T09:35:29;7.72;;;3.70;;
25717;SDS011;13574;52.040;5.692;2022-08-25T09:38:01;5.88;;;3.42;;
25717;SDS011;13574;52.040;5.692;2022-08-25T09:40:28;8.32;;;4.10;;
25717;SDS011;13574;52.040;5.692;2022-08-25T09:42:57;8.23;;;3.30;;
25717;SDS011;13574;52.040;5.692;2022-08-25T09:45:32;7.63;;;3.95;;
25717;SDS011;13574;52.040;5.692;2022-08-25T09:48:02;6.53;;;3.60;;
25717;SDS011;13574;52.040;5.692;2022-08-25T09:51:08;7.07;;;3.88;;
25717;SDS011;13574;52.040;5.692;2022-08-25T09:53:42;4.45;;;3.55;;
25717;SDS011;13574;52.040;5.692;2022-08-25T09:56:18;9.43;;;4.10;;
25717;SDS011;13574;52.040;5.692;2022-08-25T09:58:45;8.23;;;3.83;;
25717;SDS011;13574;52.040;5.692;2022-08-25T10:01:13;6.00;;;3.42;;
25717;SDS011;13574;52.040;5.692;2022-08-25T10:03:55;6.25;;;3.50;;
25717;SDS011;13574;52.040;5.692;2022-08-25T10:06:24;6.25;;;3.10;;
25717;SDS011;13574;52.040;5.692;2022-08-25T10:08:53;5.40;;;3.10;;
25717;SDS011;13574;52.040;5.692;2022-08-25T10:11:32;4.68;;;2.92;;
25717;SDS011;13574;52.040;5.692;2022-08-25T10:16:49;6.88;;;2.90;;
25717;SDS011;13574;52.040;5.692;2022-08-25T10:19:29;4.03;;;2.50;;
25717;SDS011;13574;52.040;5.692;2022-08-25T10:22:08;4.43;;;3.30;;
25717;SDS011;13574;52.040;5.692;2022-08-25T10:24:50;6.13;;;2.80;;
25717;SDS011;13574;52.040;5.692;2022-08-25T10:27:29;4.32;;;2.72;;
25717;SDS011;13574;52.040;5.692;2022-08-25T10:30:00;6.70;;;3.08;;
25717;SDS011;13574;52.040;5.692;2022-08-25T10:35:30;9.88;;;3.20;;
25717;SDS011;13574;52.040;5.692;2022-08-25T10:40:51;8.32;;;3.22;;
25717;SDS011;13574;52.040;5.692;2022-08-25T10:46:03;8.73;;;4.05;;
25717;SDS011;13574;52.040;5.692;2022-08-25T10:48:46;11.88;;;3.50;;
25717;SDS011;13574;52.040;5.692;2022-08-25T10:51:54;19.25;;;4.75;;
25717;SDS011;13574;52.040;5.692;2022-08-25T10:54:35;9.68;;;3.30;;
25717;SDS011;13574;52.040;5.692;2022-08-25T11:07:49;85.25;;;14.80;;
25717;SDS011;13574;52.040;5.692;2022-08-25T11:10:37;9.50;;;3.33;;
25717;SDS011;13574;52.040;5.692;2022-08-25T11:16:02;7.43;;;3.20;;
25717;SDS011;13574;52.040;5.692;2022-08-25T11:24:20;5.45;;;2.90;;
25717;SDS011;13574;52.040;5.692;2022-08-25T11:26:50;5.13;;;3.10;;
25717;SDS011;13574;52.040;5.692;2022-08-25T11:29:20;6.95;;;3.55;;
25717;SDS011;13574;52.040;5.692;2022-08-25T11:31:50;5.90;;;3.45;;
25717;SDS011;13574;52.040;5.692;2022-08-25T11:34:17;21.40;;;5.85;;
25717;SDS011;13574;52.040;5.692;2022-08-25T11:39:27;6.93;;;3.33;;
25717;SDS011;13574;52.040;5.692;2022-08-25T11:42:28;6.47;;;3.60;;
25717;SDS011;13574;52.040;5.692;2022-08-25T11:48:08;4.53;;;3.67;;
25717;SDS011;13574;52.040;5.692;2022-08-25T11:53:34;4.18;;;3.53;;
25717;SDS011;13574;52.040;5.692;2022-08-25T11:56:02;7.43;;;3.63;;
25717;SDS011;13574;52.040;5.692;2022-08-25T11:58:55;5.57;;;3.63;;
25717;SDS011;13574;52.040;5.692;2022-08-25T12:23:25;9.00;;;3.50;;
25717;SDS011;13574;52.040;5.692;2022-08-25T12:25:57;5.57;;;3.55;;
25717;SDS011;13574;52.040;5.692;2022-08-25T12:31:05;6.53;;;3.50;;
25717;SDS011;13574;52.040;5.692;2022-08-25T12:40:10;5.18;;;3.53;;
25717;SDS011;13574;52.040;5.692;2022-08-25T12:43:03;8.35;;;3.80;;
25717;SDS011;13574;52.040;5.692;2022-08-25T12:45:46;3.78;;;3.17;;
25717;SDS011;13574;52.040;5.692;2022-08-25T12:50:56;4.75;;;3.35;;
25717;SDS011;13574;52.040;5.692;2022-08-25T12:58:35;5.35;;;3.50;;
25717;SDS011;13574;52.040;5.692;2022-08-25T13:03:59;7.25;;;3.60;;
25717;SDS011;13574;52.040;5.692;2022-08-25T13:06:41;6.28;;;3.30;;
25717;SDS011;13574;52.040;5.692;2022-08-25T13:14:53;5.10;;;3.28;;
25717;SDS011;13574;52.040;5.692;2022-08-25T13:17:34;5.60;;;3.50;;
25717;SDS011;13574;52.040;5.692;2022-08-25T13:22:48;4.50;;;3.50;;
25717;SDS011;13574;52.040;5.692;2022-08-25T13:25:33;5.45;;;3.22;;
25717;SDS011;13574;52.040;5.692;2022-08-25T13:28:27;5.07;;;3.60;;
25717;SDS011;13574;52.040;5.692;2022-08-25T13:30:59;6.65;;;3.10;;
25717;SDS011;13574;52.040;5.692;2022-08-25T13:42:15;5.57;;;3.70;;
25717;SDS011;13574;52.040;5.692;2022-08-25T13:44:42;5.60;;;3.33;;
25717;SDS011;13574;52.040;5.692;2022-08-25T13:47:32;5.63;;;3.38;;
25717;SDS011;13574;52.040;5.692;2022-08-25T13:52:59;5.28;;;3.50;;
25717;SDS011;13574;52.040;5.692;2022-08-25T13:55:50;4.72;;;3.53;;
25717;SDS011;13574;52.040;5.692;2022-08-25T13:58:26;7.80;;;3.50;;
25717;SDS011;13574;52.040;5.692;2022-08-25T14:03:51;4.90;;;3.30;;
25717;SDS011;13574;52.040;5.692;2022-08-25T14:06:36;3.95;;;3.33;;
25717;SDS011;13574;52.040;5.692;2022-08-25T14:09:04;7.32;;;3.40;;
25717;SDS011;13574;52.040;5.692;2022-08-25T14:16:52;6.97;;;3.50;;
25717;SDS011;13574;52.040;5.692;2022-08-25T14:19:29;4.72;;;3.35;;
25717;SDS011;13574;52.040;5.692;2022-08-25T14:22:02;5.35;;;3.53;;
25717;SDS011;13574;52.040;5.692;2022-08-25T14:24:34;4.78;;;3.33;;
25717;SDS011;13574;52.040;5.692;2022-08-25T14:27:09;4.25;;;3.20;;
25717;SDS011;13574;52.040;5.692;2022-08-25T14:29:40;8.52;;;3.80;;
25717;SDS011;13574;52.040;5.692;2022-08-25T14:32:19;4.45;;;3.30;;
25717;SDS011;13574;52.040;5.692;2022-08-25T14:34:45;6.78;;;3.30;;
25717;SDS011;13574;52.040;5.692;2022-08-25T14:37:17;3.45;;;3.10;;
25717;SDS011;13574;52.040;5.692;2022-08-25T14:39:46;7.50;;;3.30;;
25717;SDS011;13574;52.040;5.692;2022-08-25T14:42:21;5.57;;;3.25;;
25717;SDS011;13574;52.040;5.692;2022-08-25T14:44:50;5.60;;;3.60;;
25717;SDS011;13574;52.040;5.692;2022-08-25T14:47:15;6.32;;;3.22;;
25717;SDS011;13574;52.040;5.692;2022-08-25T14:49:45;5.23;;;3.30;;
25717;SDS011;13574;52.040;5.692;2022-08-25T14:52:29;5.15;;;3.20;;
25717;SDS011;13574;52.040;5.692;2022-08-25T14:55:04;5.47;;;3.13;;
25717;SDS011;13574;52.040;5.692;2022-08-25T14:57:50;6.80;;;3.42;;
25717;SDS011;13574;52.040;5.692;2022-08-25T15:00:18;4.38;;;3.13;;
25717;SDS011;13574;52.040;5.692;2022-08-25T15:03:00;4.88;;;3.35;;
25717;SDS011;13574;52.040;5.692;2022-08-25T15:09:14;15.82;;;3.72;;
25717;SDS011;13574;52.040;5.692;2022-08-25T15:11:44;12.52;;;3.60;;
25717;SDS011;13574;52.040;5.692;2022-08-25T15:14:16;8.70;;;3.65;;
25717;SDS011;13574;52.040;5.692;2022-08-25T15:16:51;4.93;;;3.53;;
25717;SDS011;13574;52.040;5.692;2022-08-25T15:19:51;4.72;;;3.20;;
25717;SDS011;13574;52.040;5.692;2022-08-25T15:22:28;5.60;;;3.10;;
25717;SDS011;13574;52.040;5.692;2022-08-25T15:25:07;5.07;;;3.38;;
25717;SDS011;13574;52.040;5.692;2022-08-25T15:27:53;4.67;;;3.10;;
25717;SDS011;13574;52.040;5.692;2022-08-25T15:30:24;7.07;;;3.22;;
25717;SDS011;13574;52.040;5.692;2022-08-25T15:32:53;5.30;;;3.38;;
25717;SDS011;13574;52.040;5.692;2022-08-25T15:35:24;3.58;;;3.20;;
25717;SDS011;13574;52.040;5.692;2022-08-25T15:38:06;10.82;;;3.58;;
25717;SDS011;13574;52.040;5.692;2022-08-25T15:40:45;9.50;;;3.42;;
25717;SDS011;13574;52.040;5.692;2022-08-25T15:43:21;4.18;;;3.10;;
25717;SDS011;13574;52.040;5.692;2022-08-25T15:46:10;4.10;;;3.10;;
25717;SDS011;13574;52.040;5.692;2022-08-25T15:48:48;5.50;;;3.20;;
25717;SDS011;13574;52.040;5.692;2022-08-25T15:51:33;3.40;;;3.10;;
25717;SDS011;13574;52.040;5.692;2022-08-25T15:54:09;6.03;;;3.28;;
25717;SDS011;13574;52.040;5.692;2022-08-25T15:56:35;6.90;;;3.65;;
25717;SDS011;13574;52.040;5.692;2022-08-25T15:59:03;6.40;;;3.33;;
25717;SDS011;13574;52.040;5.692;2022-08-25T16:01:40;5.20;;;3.50;;
25717;SDS011;13574;52.040;5.692;2022-08-25T16:04:08;6.85;;;3.63;;
25717;SDS011;13574;52.040;5.692;2022-08-25T16:06:45;6.45;;;3.28;;
25717;SDS011;13574;52.040;5.692;2022-08-25T16:09:21;6.65;;;3.08;;
25717;SDS011;13574;52.040;5.692;2022-08-25T16:11:47;7.30;;;3.53;;
25717;SDS011;13574;52.040;5.692;2022-08-25T16:14:15;5.50;;;3.60;;
25717;SDS011;13574;52.040;5.692;2022-08-25T16:16:44;5.18;;;3.35;;
25717;SDS011;13574;52.040;5.692;2022-08-25T16:19:19;4.60;;;3.30;;
25717;SDS011;13574;52.040;5.692;2022-08-25T16:22:36;11.10;;;3.65;;
25717;SDS011;13574;52.040;5.692;2022-08-25T16:25:29;11.13;;;4.25;;
25717;SDS011;13574;52.040;5.692;2022-08-25T16:28:11;5.43;;;3.78;;
25717;SDS011;13574;52.040;5.692;2022-08-25T16:30:48;3.78;;;3.22;;
25717;SDS011;13574;52.040;5.692;2022-08-25T16:33:16;4.18;;;3.20;;
25717;SDS011;13574;52.040;5.692;2022-08-25T16:35:48;5.15;;;3.92;;
25717;SDS011;13574;52.040;5.692;2022-08-25T16:38:15;11.18;;;3.50;;
25717;SDS011;13574;52.040;5.692;2022-08-25T16:40:44;7.60;;;3.85;;
25717;SDS011;13574;52.040;5.692;2022-08-25T16:43:10;5.95;;;3.20;;
25717;SDS011;13574;52.040;5.692;2022-08-25T16:45:36;5.82;;;3.42;;
25717;SDS011;13574;52.040;5.692;2022-08-25T16:48:04;6.13;;;3.47;;
25717;SDS011;13574;52.040;5.692;2022-08-25T16:50:30;8.20;;;3.85;;
25717;SDS011;13574;52.040;5.692;2022-08-25T16:52:56;6.90;;;3.80;;
25717;SDS011;13574;52.040;5.692;2022-08-25T16:55:43;7.18;;;3.65;;
25717;SDS011;13574;52.040;5.692;2022-08-25T16:58:23;4.28;;;3.28;;
25717;SDS011;13574;52.040;5.692;2022-08-25T17:00:53;4.88;;;3.53;;
25717;SDS011;13574;52.040;5.692;2022-08-25T17:03:38;6.65;;;3.22;;
25717;SDS011;13574;52.040;5.692;2022-08-25T17:06:06;3.83;;;3.20;;
25717;SDS011;13574;52.040;5.692;2022-08-25T17:08:35;3.97;;;3.20;;
25717;SDS011;13574;52.040;5.692;2022-08-25T17:13:38;8.77;;;3.50;;
25717;SDS011;13574;52.040;5.692;2022-08-25T17:16:12;3.50;;;3.20;;
25717;SDS011;13574;52.040;5.692;2022-08-25T17:18:46;4.13;;;3.40;;
25717;SDS011;13574;52.040;5.692;2022-08-25T17:21:13;4.32;;;3.35;;
25717;SDS011;13574;52.040;5.692;2022-08-25T17:23:41;4.00;;;3.35;;
25717;SDS011;13574;52.040;5.692;2022-08-25T17:26:12;4.93;;;3.70;;
25717;SDS011;13574;52.040;5.692;2022-08-25T17:28:40;5.68;;;3.28;;
25717;SDS011;13574;52.040;5.692;2022-08-25T17:31:06;5.60;;;3.42;;
25717;SDS011;13574;52.040;5.692;2022-08-25T17:33:32;4.72;;;3.30;;
25717;SDS011;13574;52.040;5.692;2022-08-25T17:35:58;3.83;;;3.42;;
25717;SDS011;13574;52.040;5.692;2022-08-25T17:38:25;6.85;;;4.30;;
25717;SDS011;13574;52.040;5.692;2022-08-25T17:40:52;5.57;;;3.50;;